createdAt,value
2022-11-22T00:00:38.348Z,0.00
2022-11-22T00:01:38.372Z,0.00
2022-11-22T00:02:38.326Z,0.00
2022-11-22T00:03:38.305Z,0.00
2022-11-22T00:04:38.344Z,0.00
2022-11-22T00:05:38.307Z,0.00
2022-11-22T00:06:38.275Z,0.00
2022-11-22T00:07:38.412Z,0.00
2022-11-22T00:08:38.258Z,0.00
2022-11-22T00:09:38.250Z,0.00
2022-11-22T00:10:38.235Z,0.00
2022-11-22T00:11:38.227Z,0.00
2022-11-22T00:12:38.227Z,0.00
2022-11-22T00:13:38.197Z,0.00
2022-11-22T00:14:38.209Z,0.00
2022-11-22T00:15:38.167Z,0.00
2022-11-22T00:16:38.177Z,0.00
2022-11-22T00:17:38.157Z,0.00
2022-11-22T00:18:38.150Z,0.00
2022-11-22T00:19:38.149Z,0.00
2022-11-22T00:20:38.129Z,0.00
2022-11-22T00:21:38.107Z,0.00
2022-11-22T00:22:44.030Z,0.00
2022-11-22T00:23:39.098Z,0.00
2022-11-22T00:24:38.108Z,0.00
2022-11-22T00:25:38.069Z,0.00
2022-11-22T00:26:38.078Z,0.00
2022-11-22T00:27:38.043Z,0.00
2022-11-22T00:28:38.039Z,0.00
2022-11-22T00:29:38.033Z,0.00
2022-11-22T00:30:38.009Z,0.00
2022-11-22T00:31:38.001Z,0.00
2022-11-22T00:32:37.993Z,0.00
2022-11-22T00:33:38.032Z,0.00
2022-11-22T00:34:37.980Z,0.00
2022-11-22T00:35:37.981Z,0.00
2022-11-22T00:36:37.950Z,0.00
2022-11-22T00:37:37.953Z,0.00
2022-11-22T00:38:37.960Z,0.00
2022-11-22T00:39:37.920Z,0.00
2022-11-22T00:40:37.920Z,0.00
2022-11-22T00:41:37.915Z,0.00
2022-11-22T00:42:37.881Z,0.00
2022-11-22T00:43:37.881Z,0.00
2022-11-22T00:44:37.874Z,0.00
2022-11-22T00:45:37.851Z,0.00
2022-11-22T00:46:37.843Z,0.00
2022-11-22T00:47:37.822Z,0.00
2022-11-22T00:48:37.830Z,0.00
2022-11-22T00:49:37.802Z,0.00
2022-11-22T00:50:37.803Z,0.00
2022-11-22T00:51:37.806Z,0.00
2022-11-22T00:52:37.773Z,0.00
2022-11-22T00:53:37.772Z,0.00
2022-11-22T00:54:37.743Z,0.00
2022-11-22T00:55:37.754Z,0.00
2022-11-22T00:56:37.736Z,0.00
2022-11-22T00:57:37.715Z,0.00
2022-11-22T00:58:37.723Z,0.00
2022-11-22T00:59:37.704Z,0.00
2022-11-22T01:00:37.774Z,0.00
2022-11-22T01:01:37.747Z,0.00
2022-11-22T01:02:37.664Z,0.00
2022-11-22T01:03:37.667Z,0.00
2022-11-22T01:04:37.645Z,0.00
2022-11-22T01:05:37.624Z,0.00
2022-11-22T01:06:37.623Z,0.00
2022-11-22T01:07:37.647Z,0.00
2022-11-22T01:08:37.616Z,0.00
2022-11-22T01:09:37.575Z,0.00
2022-11-22T01:10:37.606Z,0.00
2022-11-22T01:11:37.584Z,0.00
2022-11-22T01:12:37.546Z,0.00
2022-11-22T01:13:37.578Z,0.00
2022-11-22T01:14:37.533Z,0.00
2022-11-22T01:15:37.517Z,0.00
2022-11-22T01:16:37.514Z,0.00
2022-11-22T01:17:37.513Z,0.00
2022-11-22T01:18:37.496Z,0.00
2022-11-22T01:19:37.485Z,0.00
2022-11-22T01:20:37.466Z,0.00
2022-11-22T01:21:37.456Z,0.00
2022-11-22T01:22:37.523Z,0.00
2022-11-22T01:23:37.477Z,0.00
2022-11-22T01:24:37.418Z,0.00
2022-11-22T01:25:37.416Z,0.00
2022-11-22T01:26:37.400Z,0.00
2022-11-22T01:27:37.387Z,0.00
2022-11-22T01:28:37.385Z,0.00
2022-11-22T01:29:37.381Z,0.00
2022-11-22T01:30:37.548Z,0.00
2022-11-22T01:31:37.347Z,0.00
2022-11-22T01:32:37.381Z,0.00
2022-11-22T01:33:37.339Z,0.00
2022-11-22T01:34:37.309Z,0.00
2022-11-22T01:35:37.309Z,0.00
2022-11-22T01:36:37.287Z,0.00
2022-11-22T01:37:37.287Z,0.00
2022-11-22T01:38:37.291Z,0.00
2022-11-22T01:39:37.257Z,0.00
2022-11-22T01:40:37.299Z,0.00
2022-11-22T01:41:37.239Z,0.00
2022-11-22T01:42:37.219Z,0.00
2022-11-22T01:43:37.220Z,0.00
2022-11-22T01:44:37.218Z,0.00
2022-11-22T01:45:37.193Z,0.00
2022-11-22T01:46:37.178Z,0.00
2022-11-22T01:47:37.169Z,0.00
2022-11-22T01:48:37.158Z,0.00
2022-11-22T01:49:37.162Z,0.00
2022-11-22T01:50:37.149Z,0.00
2022-11-22T01:51:37.131Z,0.00
2022-11-22T01:52:37.110Z,0.00
2022-11-22T01:53:37.111Z,0.00
2022-11-22T01:54:37.100Z,0.00
2022-11-22T01:55:37.100Z,0.00
2022-11-22T01:56:37.078Z,0.00
2022-11-22T01:57:37.073Z,0.00
2022-11-22T01:58:37.057Z,0.00
2022-11-22T01:59:37.064Z,0.00
2022-11-22T02:00:37.020Z,0.00
2022-11-22T02:01:37.070Z,0.00
2022-11-22T02:02:37.005Z,0.00
2022-11-22T02:03:37.004Z,0.00
2022-11-22T02:04:37.005Z,0.00
2022-11-22T02:05:36.972Z,0.00
2022-11-22T02:06:36.961Z,0.00
2022-11-22T02:07:37.032Z,0.00
2022-11-22T02:08:36.940Z,0.00
2022-11-22T02:09:36.944Z,0.00
2022-11-22T02:10:36.926Z,0.00
2022-11-22T02:11:36.932Z,0.00
2022-11-22T02:12:36.896Z,0.00
2022-11-22T02:13:36.892Z,0.00
2022-11-22T02:14:36.904Z,0.00
2022-11-22T02:15:36.861Z,0.00
2022-11-22T02:16:36.853Z,0.00
2022-11-22T02:17:36.843Z,0.00
2022-11-22T02:18:36.823Z,0.00
2022-11-22T02:19:36.843Z,0.00
2022-11-22T02:20:36.810Z,0.00
2022-11-22T02:21:36.794Z,0.00
2022-11-22T02:22:36.787Z,0.00
2022-11-22T02:23:36.793Z,0.00
2022-11-22T02:24:36.803Z,0.00
2022-11-22T02:25:36.755Z,0.00
2022-11-22T02:26:36.745Z,0.00
2022-11-22T02:27:36.754Z,0.00
2022-11-22T02:28:36.737Z,0.00
2022-11-22T02:29:36.746Z,0.00
2022-11-22T02:30:36.713Z,0.00
2022-11-22T02:31:36.694Z,0.00
2022-11-22T02:32:36.675Z,0.00
2022-11-22T02:33:36.669Z,0.00
2022-11-22T02:34:36.675Z,0.00
2022-11-22T02:35:36.658Z,0.00
2022-11-22T02:36:36.641Z,0.00
2022-11-22T02:37:36.639Z,0.00
2022-11-22T02:38:36.606Z,0.00
2022-11-22T02:39:36.615Z,0.00
2022-11-22T02:40:36.603Z,0.00
2022-11-22T02:41:36.665Z,0.00
2022-11-22T02:42:36.576Z,0.00
2022-11-22T02:43:36.559Z,0.00
2022-11-22T02:44:36.586Z,0.00
2022-11-22T02:45:36.554Z,0.00
2022-11-22T02:46:36.537Z,0.00
2022-11-22T02:47:36.519Z,0.00
2022-11-22T02:48:36.505Z,0.00
2022-11-22T02:49:36.516Z,0.00
2022-11-22T02:50:36.487Z,0.00
2022-11-22T02:51:36.497Z,0.00
2022-11-22T02:52:36.466Z,0.00
2022-11-22T02:53:36.457Z,0.00
2022-11-22T02:54:36.461Z,0.00
2022-11-22T02:55:36.430Z,0.00
2022-11-22T02:56:36.429Z,0.00
2022-11-22T02:57:36.408Z,0.00
2022-11-22T02:58:36.397Z,0.00
2022-11-22T02:59:36.413Z,0.00
2022-11-22T03:00:36.465Z,0.00
2022-11-22T03:01:36.453Z,0.00
2022-11-22T03:02:36.357Z,0.00
2022-11-22T03:03:36.368Z,0.00
2022-11-22T03:04:36.340Z,0.00
2022-11-22T03:05:36.327Z,0.00
2022-11-22T03:06:36.317Z,0.00
2022-11-22T03:07:36.419Z,0.00
2022-11-22T03:08:36.300Z,0.00
2022-11-22T03:09:36.285Z,0.00
2022-11-22T03:10:36.269Z,0.00
2022-11-22T03:11:36.249Z,0.00
2022-11-22T03:12:36.248Z,0.00
2022-11-22T03:13:36.231Z,0.00
2022-11-22T03:14:36.300Z,0.00
2022-11-22T03:15:36.208Z,0.00
2022-11-22T03:16:36.200Z,0.00
2022-11-22T03:17:36.190Z,0.00
2022-11-22T03:18:36.190Z,0.00
2022-11-22T03:19:36.179Z,0.00
2022-11-22T03:20:36.170Z,0.00
2022-11-22T03:21:36.142Z,0.00
2022-11-22T03:22:36.143Z,0.00
2022-11-22T03:23:36.145Z,0.00
2022-11-22T03:24:36.131Z,0.00
2022-11-22T03:25:36.099Z,0.00
2022-11-22T03:26:36.100Z,0.00
2022-11-22T03:27:36.082Z,0.00
2022-11-22T03:28:36.078Z,0.00
2022-11-22T03:29:36.081Z,0.00
2022-11-22T03:30:36.061Z,0.00
2022-11-22T03:31:36.049Z,0.00
2022-11-22T03:32:36.050Z,0.00
2022-11-22T03:33:36.014Z,0.00
2022-11-22T03:34:36.021Z,0.00
2022-11-22T03:35:35.993Z,0.00
2022-11-22T03:36:35.998Z,0.00
2022-11-22T03:37:35.972Z,0.00
2022-11-22T03:38:35.962Z,0.00
2022-11-22T03:39:35.982Z,0.00
2022-11-22T03:40:35.950Z,0.00
2022-11-22T03:41:35.921Z,0.00
2022-11-22T03:42:35.925Z,0.00
2022-11-22T03:43:35.903Z,0.00
2022-11-22T03:44:35.912Z,0.00
2022-11-22T03:45:35.881Z,0.00
2022-11-22T03:46:35.888Z,0.00
2022-11-22T03:47:35.872Z,0.00
2022-11-22T03:48:35.852Z,0.00
2022-11-22T03:49:35.846Z,0.00
2022-11-22T03:50:35.844Z,0.00
2022-11-22T03:51:35.819Z,0.00
2022-11-22T03:52:35.820Z,0.00
2022-11-22T03:53:35.805Z,0.00
2022-11-22T03:54:35.802Z,0.00
2022-11-22T03:55:35.773Z,0.00
2022-11-22T03:56:35.766Z,0.00
2022-11-22T03:57:35.747Z,0.00
2022-11-22T03:58:35.755Z,0.00
2022-11-22T03:59:35.761Z,0.00
2022-11-22T04:00:35.717Z,0.00
2022-11-22T04:01:35.751Z,0.00
2022-11-22T04:02:35.694Z,0.00
2022-11-22T04:03:35.685Z,0.00
2022-11-22T04:04:35.694Z,0.00
2022-11-22T04:05:35.674Z,0.00
2022-11-22T04:06:35.653Z,0.00
2022-11-22T04:07:35.695Z,0.00
2022-11-22T04:08:35.677Z,0.00
2022-11-22T04:09:35.657Z,0.00
2022-11-22T04:10:35.628Z,0.00
2022-11-22T04:11:35.616Z,0.00
2022-11-22T04:12:35.593Z,0.00
2022-11-22T04:13:35.575Z,0.00
2022-11-22T04:14:35.573Z,0.00
2022-11-22T04:15:35.567Z,0.00
2022-11-22T04:16:35.546Z,0.00
2022-11-22T04:17:35.541Z,0.00
2022-11-22T04:18:35.543Z,0.00
2022-11-22T04:19:35.521Z,0.00
2022-11-22T04:20:35.515Z,0.00
2022-11-22T04:21:35.494Z,0.00
2022-11-22T04:22:35.483Z,0.00
2022-11-22T04:23:35.468Z,0.00
2022-11-22T04:24:35.455Z,0.00
2022-11-22T04:25:35.471Z,0.00
2022-11-22T04:26:35.437Z,0.00
2022-11-22T04:27:35.417Z,0.00
2022-11-22T04:29:01.857Z,0.00
2022-11-22T04:29:36.458Z,0.00
2022-11-22T04:30:35.397Z,0.00
2022-11-22T04:31:35.386Z,0.00
2022-11-22T04:32:35.377Z,0.00
2022-11-22T04:33:35.356Z,0.00
2022-11-22T04:34:35.347Z,0.00
2022-11-22T04:35:35.346Z,0.00
2022-11-22T04:36:35.327Z,0.00
2022-11-22T04:37:35.318Z,0.00
2022-11-22T04:38:35.308Z,0.00
2022-11-22T04:39:35.288Z,0.00
2022-11-22T04:40:35.297Z,0.00
2022-11-22T04:41:35.267Z,0.00
2022-11-22T04:42:35.267Z,0.00
2022-11-22T04:43:35.248Z,0.00
2022-11-22T04:44:35.243Z,0.00
2022-11-22T04:45:35.272Z,0.00
2022-11-22T04:46:35.219Z,0.00
2022-11-22T04:47:35.207Z,0.00
2022-11-22T04:48:35.198Z,0.00
2022-11-22T04:49:35.180Z,0.00
2022-11-22T04:50:35.188Z,0.00
2022-11-22T04:51:35.158Z,0.00
2022-11-22T04:52:35.167Z,0.00
2022-11-22T04:53:35.148Z,0.00
2022-11-22T04:54:35.129Z,0.00
2022-11-22T04:55:35.131Z,0.00
2022-11-22T04:56:35.109Z,0.00
2022-11-22T04:57:35.088Z,0.00
2022-11-22T04:58:35.090Z,0.00
2022-11-22T04:59:35.071Z,0.00
2022-11-22T05:00:35.129Z,0.00
2022-11-22T05:01:35.078Z,0.00
2022-11-22T05:02:35.049Z,0.00
2022-11-22T05:03:35.039Z,0.00
2022-11-22T05:04:35.038Z,0.00
2022-11-22T05:05:35.032Z,0.00
2022-11-22T05:06:35.020Z,0.00
2022-11-22T05:07:35.050Z,0.00
2022-11-22T05:08:34.993Z,0.00
2022-11-22T05:09:34.968Z,0.00
2022-11-22T05:10:34.970Z,0.00
2022-11-22T05:11:34.958Z,0.00
2022-11-22T05:12:34.931Z,0.00
2022-11-22T05:13:34.958Z,0.00
2022-11-22T05:14:34.921Z,0.00
2022-11-22T05:15:34.910Z,0.00
2022-11-22T05:16:34.892Z,0.00
2022-11-22T05:17:34.880Z,0.00
2022-11-22T05:18:34.871Z,0.00
2022-11-22T05:19:34.852Z,0.00
2022-11-22T05:20:34.860Z,0.00
2022-11-22T05:21:34.833Z,0.00
2022-11-22T05:22:34.832Z,0.00
2022-11-22T05:23:34.823Z,0.00
2022-11-22T05:24:34.802Z,0.00
2022-11-22T05:25:34.834Z,0.00
2022-11-22T05:26:34.783Z,0.00
2022-11-22T05:27:34.762Z,0.00
2022-11-22T05:28:34.763Z,0.00
2022-11-22T05:29:34.753Z,0.00
2022-11-22T05:30:34.753Z,0.00
2022-11-22T05:31:34.733Z,0.00
2022-11-22T05:32:34.732Z,0.00
2022-11-22T05:33:34.783Z,0.00
2022-11-22T05:34:34.701Z,0.00
2022-11-22T05:35:34.693Z,0.00
2022-11-22T05:36:34.692Z,0.00
2022-11-22T05:37:34.664Z,0.00
2022-11-22T05:38:34.695Z,0.00
2022-11-22T05:39:34.635Z,0.00
2022-11-22T05:40:34.652Z,0.00
2022-11-22T05:41:34.707Z,0.00
2022-11-22T05:42:34.625Z,0.00
2022-11-22T05:43:34.815Z,0.00
2022-11-22T05:44:34.588Z,0.00
2022-11-22T05:45:34.574Z,0.00
2022-11-22T05:46:34.565Z,0.00
2022-11-22T05:47:34.557Z,0.00
2022-11-22T05:48:34.545Z,0.00
2022-11-22T05:49:34.606Z,0.00
2022-11-22T05:50:34.538Z,0.00
2022-11-22T05:51:35.258Z,0.00
2022-11-22T05:52:34.505Z,0.00
2022-11-22T05:53:34.487Z,0.00
2022-11-22T05:54:34.486Z,0.00
2022-11-22T05:55:34.476Z,0.00
2022-11-22T05:56:34.455Z,0.00
2022-11-22T05:57:34.449Z,0.00
2022-11-22T05:58:34.437Z,0.00
2022-11-22T05:59:34.465Z,0.00
2022-11-22T06:00:34.425Z,0.00
2022-11-22T06:01:34.397Z,0.00
2022-11-22T06:02:34.486Z,0.00
2022-11-22T06:03:34.377Z,0.00
2022-11-22T06:04:34.398Z,0.00
2022-11-22T06:05:34.366Z,0.00
2022-11-22T06:06:34.346Z,0.00
2022-11-22T06:07:34.375Z,0.00
2022-11-22T06:08:34.327Z,0.00
2022-11-22T06:09:34.330Z,0.00
2022-11-22T06:10:34.320Z,0.00
2022-11-22T06:11:34.286Z,0.00
2022-11-22T06:12:34.315Z,0.00
2022-11-22T06:13:34.267Z,0.00
2022-11-22T06:14:38.466Z,0.00
2022-11-22T06:15:35.259Z,0.00
2022-11-22T06:16:34.287Z,0.00
2022-11-22T06:17:34.218Z,0.00
2022-11-22T06:18:34.207Z,0.00
2022-11-22T06:19:34.208Z,0.00
2022-11-22T06:20:34.220Z,0.00
2022-11-22T06:21:34.187Z,0.00
2022-11-22T06:22:34.177Z,4.00
2022-11-22T06:23:34.162Z,4.00
2022-11-22T06:24:34.227Z,4.00
2022-11-22T06:25:34.293Z,4.00
2022-11-22T06:26:39.026Z,4.00
2022-11-22T06:27:35.108Z,8.00
2022-11-22T06:28:34.117Z,8.00
2022-11-22T06:29:34.089Z,8.00
2022-11-22T06:30:34.080Z,12.00
2022-11-22T06:31:34.084Z,12.00
2022-11-22T06:32:34.069Z,16.00
2022-11-22T06:33:34.061Z,16.00
2022-11-22T06:34:34.060Z,20.00
2022-11-22T06:35:34.018Z,24.00
2022-11-22T06:36:34.087Z,28.00
2022-11-22T06:37:34.007Z,36.00
2022-11-22T06:38:33.997Z,40.00
2022-11-22T06:39:33.979Z,48.00
2022-11-22T06:40:33.976Z,52.00
2022-11-22T06:41:33.976Z,64.00
2022-11-22T06:42:33.972Z,72.00
2022-11-22T06:43:33.941Z,84.00
2022-11-22T06:44:33.931Z,92.00
2022-11-22T06:45:33.912Z,108.00
2022-11-22T06:46:33.995Z,124.00
2022-11-22T06:47:33.900Z,140.00
2022-11-22T06:48:33.880Z,156.00
2022-11-22T06:49:33.870Z,176.00
2022-11-22T06:50:33.864Z,196.00
2022-11-22T06:51:33.868Z,220.00
2022-11-22T06:52:33.841Z,244.00
2022-11-22T06:53:46.792Z,268.00
2022-11-22T06:54:34.811Z,292.00
2022-11-22T06:55:50.039Z,316.00
2022-11-22T06:56:34.952Z,348.00
2022-11-22T06:57:33.779Z,368.00
2022-11-22T06:58:33.779Z,396.00
2022-11-22T06:59:33.762Z,424.00
2022-11-22T07:00:33.774Z,448.00
2022-11-22T07:01:33.832Z,476.00
2022-11-22T07:02:33.780Z,504.00
2022-11-22T07:03:33.716Z,532.00
2022-11-22T07:04:33.703Z,560.00
2022-11-22T07:05:33.695Z,588.00
2022-11-22T07:06:33.717Z,620.00
2022-11-22T07:07:33.729Z,656.00
2022-11-22T07:08:33.665Z,692.00
2022-11-22T07:09:33.659Z,736.00
2022-11-22T07:10:33.643Z,776.00
2022-11-22T07:11:33.645Z,820.00
2022-11-22T07:12:33.613Z,864.00
2022-11-22T07:13:33.622Z,912.00
2022-11-22T07:14:33.592Z,964.00
2022-11-22T07:15:33.594Z,1024.00
2022-11-22T07:16:33.583Z,1076.00
2022-11-22T07:17:33.563Z,1108.00
2022-11-22T07:18:33.672Z,1144.00
2022-11-22T07:19:33.644Z,1208.00
2022-11-22T07:20:33.531Z,1288.00
2022-11-22T07:21:33.523Z,1384.00
2022-11-22T07:22:33.514Z,1476.00
2022-11-22T07:23:33.502Z,1576.00
2022-11-22T07:24:33.484Z,1692.00
2022-11-22T07:25:33.510Z,1820.00
2022-11-22T07:26:33.474Z,1960.00
2022-11-22T07:27:33.483Z,2108.00
2022-11-22T07:28:33.485Z,2252.00
2022-11-22T07:29:33.452Z,2376.00
2022-11-22T07:30:33.415Z,2488.00
2022-11-22T07:31:33.427Z,2596.00
2022-11-22T07:32:33.414Z,2724.00
2022-11-22T07:33:33.392Z,2884.00
2022-11-22T07:34:33.377Z,3068.00
2022-11-22T07:35:33.365Z,3268.00
2022-11-22T07:36:33.364Z,3436.00
2022-11-22T07:37:33.346Z,3544.00
2022-11-22T07:38:33.334Z,3636.00
2022-11-22T07:39:33.325Z,3784.00
2022-11-22T07:40:33.305Z,3880.00
2022-11-22T07:41:33.436Z,3868.00
2022-11-22T07:42:33.284Z,3868.00
2022-11-22T07:43:33.285Z,3820.00
2022-11-22T07:44:33.272Z,3684.00
2022-11-22T07:45:33.256Z,3640.00
2022-11-22T07:46:33.303Z,3620.00
2022-11-22T07:47:33.238Z,3688.00
2022-11-22T07:48:33.225Z,3848.00
2022-11-22T07:49:33.318Z,3968.00
2022-11-22T07:50:33.205Z,4028.00
2022-11-22T07:51:33.205Z,3996.00
2022-11-22T07:52:33.283Z,3880.00
2022-11-22T07:53:33.337Z,3780.00
2022-11-22T07:54:33.159Z,3860.00
2022-11-22T07:55:33.167Z,3968.00
2022-11-22T07:56:33.147Z,4020.00
2022-11-22T07:57:33.126Z,4048.00
2022-11-22T07:58:33.116Z,4132.00
2022-11-22T07:59:33.107Z,4212.00
2022-11-22T08:00:33.128Z,4132.00
2022-11-22T08:01:33.149Z,3996.00
2022-11-22T08:02:33.268Z,3836.00
2022-11-22T08:03:33.060Z,3700.00
2022-11-22T08:04:33.067Z,3700.00
2022-11-22T08:05:33.041Z,3740.00
2022-11-22T08:06:33.028Z,3784.00
2022-11-22T08:07:33.122Z,3828.00
2022-11-22T08:08:33.026Z,3868.00
2022-11-22T08:09:33.035Z,3928.00
2022-11-22T08:10:32.989Z,4056.00
2022-11-22T08:11:32.978Z,4180.00
2022-11-22T08:12:32.967Z,4192.00
2022-11-22T08:13:33.010Z,4176.00
2022-11-22T08:14:33.084Z,4156.00
2022-11-22T08:15:32.922Z,4164.00
2022-11-22T08:16:32.929Z,4200.00
2022-11-22T08:17:32.948Z,4244.00
2022-11-22T08:18:32.900Z,4336.00
2022-11-22T08:19:32.994Z,4424.00
2022-11-22T08:20:32.889Z,4536.00
2022-11-22T08:21:32.870Z,4760.00
2022-11-22T08:22:32.870Z,5000.00
2022-11-22T08:23:32.850Z,5268.00
2022-11-22T08:24:32.851Z,5572.00
2022-11-22T08:25:32.833Z,5880.00
2022-11-22T08:26:32.814Z,6160.00
2022-11-22T08:27:32.804Z,6348.00
2022-11-22T08:28:32.797Z,6432.00
2022-11-22T08:29:32.827Z,6484.00
2022-11-22T08:30:32.771Z,6704.00
2022-11-22T08:31:32.829Z,7180.00
2022-11-22T08:32:32.762Z,7376.00
2022-11-22T08:33:32.734Z,7272.00
2022-11-22T08:34:32.722Z,6884.00
2022-11-22T08:35:32.711Z,6704.00
2022-11-22T08:36:32.706Z,7044.00
2022-11-22T08:37:32.693Z,7244.00
2022-11-22T08:38:32.685Z,7376.00
2022-11-22T08:39:32.663Z,8368.00
2022-11-22T08:40:36.698Z,9824.00
2022-11-22T08:41:33.651Z,11088.00
2022-11-22T08:42:32.644Z,12020.00
2022-11-22T08:43:32.654Z,12408.00
2022-11-22T08:44:32.622Z,12616.00
2022-11-22T08:45:32.600Z,13052.00
2022-11-22T08:46:32.606Z,13712.00
2022-11-22T08:47:32.603Z,13960.00
2022-11-22T08:48:32.572Z,13688.00
2022-11-22T08:49:32.920Z,13704.00
2022-11-22T08:50:32.554Z,14412.00
2022-11-22T08:51:32.542Z,13796.00
2022-11-22T08:52:32.534Z,12744.00
2022-11-22T08:53:32.517Z,11948.00
2022-11-22T08:54:37.501Z,12008.00
2022-11-22T08:55:33.493Z,12296.00
2022-11-22T08:56:32.483Z,12168.00
2022-11-22T08:57:32.474Z,11684.00
2022-11-22T08:58:32.468Z,10696.00
2022-11-22T08:59:33.197Z,9644.00
2022-11-22T09:00:33.651Z,9656.00
2022-11-22T09:01:32.491Z,10188.00
2022-11-22T09:02:32.436Z,10264.00
2022-11-22T09:03:32.396Z,9976.00
2022-11-22T09:04:32.435Z,10104.00
2022-11-22T09:05:32.641Z,10560.00
2022-11-22T09:08:36.504Z,12088.00
2022-11-22T09:09:43.495Z,11444.00
2022-11-22T09:10:33.337Z,10564.00
2022-11-22T09:11:32.317Z,9796.00
2022-11-22T09:12:32.317Z,8964.00
2022-11-22T09:13:32.287Z,7696.00
2022-11-22T09:14:32.285Z,6828.00
2022-11-22T09:15:32.270Z,6260.00
2022-11-22T09:16:32.441Z,6264.00
2022-11-22T09:17:32.259Z,6244.00
2022-11-22T09:18:32.227Z,6216.00
2022-11-22T09:19:32.519Z,6248.00
2022-11-22T09:20:32.238Z,6288.00
2022-11-22T09:21:32.199Z,6312.00
2022-11-22T09:22:32.210Z,6476.00
2022-11-22T09:23:32.180Z,6588.00
2022-11-22T09:24:32.171Z,6424.00
2022-11-22T09:25:32.178Z,6076.00
2022-11-22T09:26:32.291Z,5836.00
2022-11-22T09:27:32.131Z,6256.00
2022-11-22T09:28:32.356Z,6860.00
2022-11-22T09:29:32.447Z,7968.00
2022-11-22T09:30:32.100Z,9008.00
2022-11-22T09:31:32.090Z,8876.00
2022-11-22T09:32:33.800Z,8556.00
2022-11-22T09:33:32.080Z,10416.00
2022-11-22T09:34:32.071Z,10692.00
2022-11-22T09:35:32.051Z,8760.00
2022-11-22T09:36:32.040Z,8620.00
2022-11-22T09:37:32.037Z,8460.00
2022-11-22T09:38:32.030Z,8052.00
2022-11-22T09:39:32.112Z,8404.00
2022-11-22T09:40:32.020Z,8072.00
2022-11-22T09:41:31.983Z,7920.00
2022-11-22T09:42:31.980Z,8056.00
2022-11-22T09:43:31.980Z,8144.00
2022-11-22T09:44:31.962Z,8564.00
2022-11-22T09:45:31.933Z,9044.00
2022-11-22T09:46:31.931Z,9896.00
2022-11-22T09:47:31.925Z,11232.00
2022-11-22T09:48:31.913Z,11584.00
2022-11-22T09:49:32.143Z,10216.00
2022-11-22T09:50:31.882Z,9312.00
2022-11-22T09:51:31.863Z,8504.00
2022-11-22T09:52:31.883Z,8040.00
2022-11-22T09:53:31.884Z,9288.00
2022-11-22T09:54:31.835Z,9964.00
2022-11-22T09:55:31.966Z,11196.00
2022-11-22T09:56:31.824Z,11236.00
2022-11-22T09:57:31.806Z,9980.00
2022-11-22T09:58:31.805Z,9720.00
2022-11-22T09:59:32.188Z,10528.00
2022-11-22T10:00:31.841Z,10508.00
2022-11-22T10:01:31.868Z,9868.00
2022-11-22T10:02:43.542Z,9596.00
2022-11-22T10:03:32.745Z,9376.00
2022-11-22T10:04:31.745Z,9384.00
2022-11-22T10:05:31.948Z,10452.00
2022-11-22T10:06:31.715Z,11020.00
2022-11-22T10:07:31.773Z,11044.00
2022-11-22T10:08:31.698Z,9948.00
2022-11-22T10:09:32.010Z,9212.00
2022-11-22T10:10:31.671Z,9180.00
2022-11-22T10:11:36.171Z,9904.00
2022-11-22T10:12:32.637Z,11340.00
2022-11-22T10:13:31.668Z,12616.00
2022-11-22T10:14:31.626Z,14392.00
2022-11-22T10:15:31.625Z,16048.00
2022-11-22T10:16:31.599Z,15264.00
2022-11-22T10:17:31.592Z,14864.00
2022-11-22T10:18:31.601Z,16048.00
2022-11-22T10:19:31.785Z,16992.00
2022-11-22T10:20:31.578Z,19392.00
2022-11-22T10:21:31.551Z,26016.00
2022-11-22T10:22:31.528Z,31296.00
2022-11-22T10:23:31.701Z,29312.00
2022-11-22T10:24:31.535Z,35008.00
2022-11-22T10:25:31.489Z,28192.00
2022-11-22T10:26:31.501Z,53920.00
2022-11-22T10:27:31.471Z,37056.00
2022-11-22T10:28:31.473Z,75424.00
2022-11-22T10:29:31.756Z,81952.00
2022-11-22T10:30:31.440Z,44224.00
2022-11-22T10:31:31.443Z,16292.00
2022-11-22T10:32:31.422Z,16692.00
2022-11-22T10:33:31.422Z,17344.00
2022-11-22T10:34:31.402Z,18016.00
2022-11-22T10:35:31.391Z,19232.00
2022-11-22T10:36:31.372Z,20704.00
2022-11-22T10:37:31.371Z,24640.00
2022-11-22T10:38:31.362Z,37984.00
2022-11-22T10:39:34.531Z,28064.00
2022-11-22T10:40:31.323Z,42880.00
2022-11-22T10:41:31.342Z,24576.00
2022-11-22T10:42:31.306Z,23744.00
2022-11-22T10:43:31.345Z,22368.00
2022-11-22T10:44:31.284Z,22880.00
2022-11-22T10:45:31.274Z,26016.00
2022-11-22T10:46:31.265Z,27360.00
2022-11-22T10:47:34.409Z,28640.00
2022-11-22T10:48:31.263Z,27008.00
2022-11-22T10:49:31.430Z,26272.00
2022-11-22T10:50:31.216Z,29120.00
2022-11-22T10:51:31.208Z,28224.00
2022-11-22T10:52:31.202Z,37248.00
2022-11-22T10:53:31.218Z,30496.00
2022-11-22T10:54:31.175Z,24800.00
2022-11-22T10:55:31.168Z,65504.00
2022-11-22T10:56:31.148Z,33632.00
2022-11-22T10:57:31.138Z,32704.00
2022-11-22T10:58:31.138Z,61728.00
2022-11-22T10:59:31.368Z,42208.00
2022-11-22T11:00:31.121Z,75648.00
2022-11-22T11:01:31.163Z,30784.00
2022-11-22T11:02:31.090Z,28192.00
2022-11-22T11:03:31.089Z,26496.00
2022-11-22T11:04:31.059Z,35776.00
2022-11-22T11:05:31.058Z,36544.00
2022-11-22T11:06:49.874Z,32768.00
2022-11-22T11:07:32.092Z,27584.00
2022-11-22T11:08:54.192Z,23616.00
2022-11-22T11:10:34.537Z,18176.00
2022-11-22T11:11:31.043Z,24608.00
2022-11-22T11:12:30.962Z,24672.00
2022-11-22T11:13:30.993Z,23072.00
2022-11-22T11:14:31.275Z,25536.00
2022-11-22T11:15:30.939Z,27968.00
2022-11-22T11:16:30.932Z,20224.00
2022-11-22T11:17:30.924Z,16388.00
2022-11-22T11:18:30.941Z,15400.00
2022-11-22T11:19:30.903Z,15328.00
2022-11-22T11:20:30.883Z,14500.00
2022-11-22T11:21:30.875Z,13088.00
2022-11-22T11:22:58.485Z,13336.00
2022-11-22T11:23:31.875Z,12596.00
2022-11-22T11:24:31.123Z,10872.00
2022-11-22T11:25:30.846Z,10316.00
2022-11-22T11:26:30.817Z,10664.00
2022-11-22T11:27:30.806Z,10436.00
2022-11-22T11:28:30.807Z,9256.00
2022-11-22T11:29:35.987Z,8216.00
2022-11-22T11:30:31.776Z,8132.00
2022-11-22T11:31:30.767Z,7656.00
2022-11-22T11:32:30.758Z,8548.00
2022-11-22T11:33:30.747Z,8008.00
2022-11-22T11:34:31.007Z,6816.00
2022-11-22T11:35:30.777Z,7568.00
2022-11-22T11:36:30.707Z,10048.00
2022-11-22T11:37:30.699Z,12288.00
2022-11-22T11:38:30.687Z,14548.00
2022-11-22T11:39:30.865Z,14232.00
2022-11-22T11:40:30.660Z,12736.00
2022-11-22T11:41:30.700Z,12296.00
2022-11-22T11:42:30.642Z,10700.00
2022-11-22T11:43:30.643Z,10456.00
2022-11-22T11:44:30.809Z,11728.00
2022-11-22T11:45:30.608Z,13312.00
2022-11-22T11:46:30.599Z,14136.00
2022-11-22T11:47:30.589Z,16512.00
2022-11-22T11:48:30.572Z,17120.00
2022-11-22T11:49:30.874Z,18592.00
2022-11-22T11:50:30.549Z,18752.00
2022-11-22T11:51:30.542Z,21184.00
2022-11-22T11:52:30.533Z,25792.00
2022-11-22T11:53:30.529Z,23936.00
2022-11-22T11:54:30.513Z,31872.00
2022-11-22T11:55:30.503Z,23040.00
2022-11-22T11:56:30.481Z,30624.00
2022-11-22T11:57:30.472Z,21056.00
2022-11-22T11:58:30.462Z,22400.00
2022-11-22T11:59:30.592Z,29952.00
2022-11-22T12:00:30.447Z,20000.00
2022-11-22T12:01:34.418Z,19040.00
2022-11-22T12:02:33.034Z,16960.00
2022-11-22T12:03:30.416Z,15984.00
2022-11-22T12:04:30.719Z,15160.00
2022-11-22T12:05:30.393Z,13752.00
2022-11-22T12:06:30.373Z,14704.00
2022-11-22T12:07:30.422Z,19264.00
2022-11-22T12:08:30.367Z,29056.00
2022-11-22T12:09:30.355Z,20480.00
2022-11-22T12:10:30.336Z,17888.00
2022-11-22T12:11:30.326Z,16300.00
2022-11-22T12:12:30.314Z,13492.00
2022-11-22T12:13:30.308Z,12928.00
2022-11-22T12:14:55.611Z,13096.00
2022-11-22T12:15:31.284Z,11044.00
2022-11-22T12:16:30.271Z,9440.00
2022-11-22T12:17:30.273Z,8964.00
2022-11-22T12:18:30.247Z,8388.00
2022-11-22T12:19:30.256Z,8336.00
2022-11-22T12:20:30.242Z,7708.00
2022-11-22T12:21:30.220Z,6564.00
2022-11-22T12:22:48.834Z,6052.00
2022-11-22T12:23:31.215Z,5864.00
2022-11-22T12:25:09.219Z,6656.00
2022-11-22T12:25:32.897Z,7516.00
2022-11-22T12:26:31.158Z,8812.00
2022-11-22T12:27:30.168Z,11388.00
2022-11-22T12:28:30.146Z,12312.00
2022-11-22T12:29:30.180Z,12340.00
2022-11-22T12:30:30.139Z,11808.00
2022-11-22T12:31:30.107Z,10696.00
2022-11-22T12:32:30.107Z,9256.00
2022-11-22T12:33:30.087Z,8412.00
2022-11-22T12:34:30.418Z,8916.00
2022-11-22T12:35:30.079Z,9472.00
2022-11-22T12:36:32.829Z,10396.00
2022-11-22T12:37:30.031Z,10080.00
2022-11-22T12:38:30.034Z,8556.00
2022-11-22T12:39:30.031Z,7944.00
2022-11-22T12:40:30.023Z,8380.00
2022-11-22T12:41:29.999Z,7596.00